Time;durP1;ratioP1;P1;durP2;ratioP2;P2;SDS_P1;SDS_P2;PMS_P1;PMS_P2;Temp;Humidity;BMP_temperature;BMP_pressure;BME280_temperature;BME280_humidity;BME280_pressure;Samples;Min_cycle;Max_cycle;Signal;HPM_P1;HPM_P2
2023/05/18 00:02:02;;;;;;;12.20;2.77;;;12.20;99.90;;;;;;5073808;28;20158;-77
2023/05/18 00:04:30;;;;;;;9.17;3.00;;;12.20;99.90;;;;;;5072359;28;20177;-78
2023/05/18 00:06:55;;;;;;;8.90;2.50;;;12.10;99.90;;;;;;5072473;28;20166;-78
2023/05/18 00:09:28;;;;;;;9.83;2.87;;;12.10;99.90;;;;;;5072112;28;20690;-79
2023/05/18 00:11:54;;;;;;;10.00;2.80;;;12.00;99.90;;;;;;5073563;28;20256;-77
2023/05/18 00:14:20;;;;;;;6.80;2.73;;;12.00;99.90;;;;;;5073656;28;20261;-78
2023/05/18 00:16:47;;;;;;;13.47;2.60;;;11.90;99.90;;;;;;5073566;28;20207;-77
2023/05/18 00:19:13;;;;;;;11.10;3.10;;;11.90;99.90;;;;;;5072094;28;20537;-77
2023/05/18 00:21:42;;;;;;;9.27;2.87;;;11.80;99.90;;;;;;5073582;28;20544;-77
2023/05/18 00:24:11;;;;;;;10.30;3.00;;;11.80;99.90;;;;;;5072001;28;20200;-77
2023/05/18 00:26:38;;;;;;;10.67;2.90;;;11.80;99.90;;;;;;5072892;28;20181;-77
2023/05/18 00:29:04;;;;;;;9.37;3.07;;;11.70;99.90;;;;;;5074024;28;20193;-78
2023/05/18 00:31:34;;;;;;;9.40;2.80;;;11.70;99.90;;;;;;5073203;28;20241;-78
2023/05/18 00:34:07;;;;;;;8.00;2.60;;;11.70;99.90;;;;;;5073984;28;20162;-78
2023/05/18 00:36:33;;;;;;;8.77;2.80;;;11.50;99.90;;;;;;5072870;28;20173;-77
2023/05/18 00:38:59;;;;;;;10.77;3.33;;;11.50;99.90;;;;;;5073111;28;20509;-78
2023/05/18 00:41:26;;;;;;;10.03;2.73;;;11.20;99.90;;;;;;5072998;28;20228;-78
2023/05/18 00:43:55;;;;;;;8.63;2.50;;;11.40;99.90;;;;;;5073424;28;20170;-78
2023/05/18 00:46:24;;;;;;;14.90;3.10;;;11.40;99.90;;;;;;5072909;28;20571;-79
2023/05/18 00:48:51;;;;;;;11.13;3.30;;;11.30;99.90;;;;;;5073009;28;20286;-77
2023/05/18 00:51:24;;;;;;;11.17;2.80;;;11.40;99.90;;;;;;5071654;28;20653;-77
2023/05/18 00:53:51;;;;;;;13.20;2.80;;;11.30;99.90;;;;;;5072448;28;20154;-79
2023/05/18 00:56:17;;;;;;;10.13;2.90;;;11.30;99.90;;;;;;5072566;28;20630;-78
2023/05/18 00:58:44;;;;;;;13.57;3.00;;;11.30;99.90;;;;;;5072563;28;20202;-78
2023/05/18 01:01:11;;;;;;;9.57;2.80;;;11.10;99.90;;;;;;5072564;28;20216;-78
2023/05/18 01:03:38;;;;;;;6.57;2.70;;;11.10;99.90;;;;;;5072690;28;20606;-78
2023/05/18 01:06:08;;;;;;;12.07;2.47;;;11.10;99.90;;;;;;5072614;28;20223;-77
2023/05/18 01:08:35;;;;;;;8.63;3.47;;;11.10;99.90;;;;;;5071002;28;20166;-79
2023/05/18 01:11:20;;;;;;;12.73;3.53;;;11.00;99.90;;;;;;5070921;28;20674;-78
2023/05/18 01:14:05;;;;;;;12.57;3.50;;;10.90;99.90;;;;;;5071035;28;20633;-78
2023/05/18 01:16:39;;;;;;;9.17;3.37;;;10.90;99.90;;;;;;5072397;28;20608;-78
2023/05/18 01:19:34;;;;;;;10.50;3.17;;;10.90;99.90;;;;;;5072461;28;20168;-78
2023/05/18 01:22:36;;;;;;;9.07;2.60;;;10.90;99.90;;;;;;5070711;28;20186;-78
2023/05/18 01:25:21;;;;;;;12.17;3.27;;;10.90;99.90;;;;;;5072081;28;20187;-78
2023/05/18 01:27:49;;;;;;;7.93;3.03;;;10.90;99.90;;;;;;5071083;28;20179;-77
2023/05/18 01:30:16;;;;;;;11.70;3.03;;;10.90;99.90;;;;;;5072360;28;20531;-78
2023/05/18 01:32:45;;;;;;;12.27;3.27;;;10.90;99.90;;;;;;5070909;28;20167;-78
2023/05/18 01:35:11;;;;;;;9.73;2.93;;;10.90;99.90;;;;;;5071080;28;20598;-78
2023/05/18 01:37:36;;;;;;;9.10;3.40;;;10.90;99.90;;;;;;5072318;28;20248;-78
2023/05/18 01:40:04;;;;;;;9.60;2.70;;;10.80;99.90;;;;;;5072526;28;20190;-78
2023/05/18 01:42:33;;;;;;;10.13;2.70;;;10.80;99.90;;;;;;5070503;28;20666;-78
2023/05/18 01:45:06;;;;;;;8.27;3.10;;;10.80;99.90;;;;;;5072254;28;20298;-78
2023/05/18 01:47:33;;;;;;;11.63;3.03;;;10.70;99.90;;;;;;5070904;28;20194;-78
2023/05/18 01:50:13;;;;;;;10.10;3.00;;;10.60;99.90;;;;;;5072101;28;20281;-78
2023/05/18 01:52:47;;;;;;;9.40;2.83;;;10.50;99.90;;;;;;5070650;28;20168;-79
2023/05/18 01:55:15;;;;;;;10.77;3.20;;;10.50;99.90;;;;;;5072039;28;20588;-78
2023/05/18 01:57:44;;;;;;;9.00;2.97;;;10.50;99.90;;;;;;5072295;28;20153;-78
2023/05/18 02:00:11;;;;;;;9.60;3.40;;;10.40;99.90;;;;;;5072305;28;20217;-79
2023/05/18 02:02:37;;;;;;;6.20;3.10;;;10.50;99.90;;;;;;5070717;28;20275;-78
2023/05/18 02:05:04;;;;;;;6.00;2.90;;;10.50;99.90;;;;;;5070826;28;20267;-78
2023/05/18 02:07:30;;;;;;;8.13;3.33;;;10.50;99.90;;;;;;5070784;28;20168;-77
2023/05/18 02:09:56;;;;;;;10.23;3.17;;;10.50;99.90;;;;;;5070761;28;20214;-78
2023/05/18 02:12:21;;;;;;;5.70;3.30;;;10.40;99.90;;;;;;5072005;28;20672;-77
2023/05/18 02:14:47;;;;;;;9.23;3.30;;;10.30;99.90;;;;;;5070592;28;20213;-77
2023/05/18 02:17:13;;;;;;;8.07;3.27;;;10.40;99.90;;;;;;5071961;28;20251;-78
2023/05/18 02:19:38;;;;;;;7.70;3.20;;;10.30;99.90;;;;;;5072031;28;20173;-78
2023/05/18 02:22:08;;;;;;;10.67;3.60;;;10.30;99.90;;;;;;5071539;28;20526;-77
2023/05/18 02:24:34;;;;;;;12.47;3.30;;;10.40;99.90;;;;;;5071646;28;20190;-78
2023/05/18 02:27:01;;;;;;;9.00;3.00;;;10.30;99.90;;;;;;5071878;28;20167;-78
2023/05/18 02:29:27;;;;;;;9.20;3.43;;;10.40;99.90;;;;;;5070988;28;20622;-77
2023/05/18 02:31:53;;;;;;;9.83;3.03;;;10.30;99.90;;;;;;5070772;28;20175;-77
2023/05/18 02:34:20;;;;;;;9.30;3.57;;;10.40;99.90;;;;;;5071507;28;20164;-77
2023/05/18 02:36:47;;;;;;;9.80;3.70;;;10.30;99.90;;;;;;5071908;28;20159;-78
2023/05/18 02:39:13;;;;;;;8.03;3.17;;;10.30;99.90;;;;;;5070469;28;20171;-77
2023/05/18 02:41:40;;;;;;;9.07;3.10;;;10.40;99.90;;;;;;5071752;28;20181;-77
2023/05/18 02:44:06;;;;;;;11.70;3.37;;;10.20;99.90;;;;;;5070266;28;20174;-77
2023/05/18 02:46:31;;;;;;;14.43;3.80;;;10.20;99.90;;;;;;5071655;28;20598;-78
2023/05/18 02:48:58;;;;;;;8.97;3.90;;;10.10;99.90;;;;;;5071201;28;20246;-78
2023/05/18 02:51:24;;;;;;;7.60;3.63;;;10.20;99.90;;;;;;5070360;28;20160;-75
2023/05/18 02:53:50;;;;;;;6.40;3.17;;;10.20;99.90;;;;;;5070207;28;20650;-75
2023/05/18 02:56:17;;;;;;;10.83;3.30;;;10.20;99.90;;;;;;5072965;28;20259;-75
2023/05/18 02:58:45;;;;;;;10.10;3.60;;;10.20;99.90;;;;;;5073620;28;20263;-75
2023/05/18 03:01:12;;;;;;;12.23;3.77;;;10.10;99.90;;;;;;5075165;28;20576;-73
2023/05/18 03:03:40;;;;;;;7.30;2.77;;;10.20;99.90;;;;;;5073400;28;20187;-74
2023/05/18 03:06:07;;;;;;;10.03;3.13;;;10.10;99.90;;;;;;5074921;28;20175;-74
2023/05/18 03:08:32;;;;;;;10.03;3.63;;;10.10;99.90;;;;;;5073504;28;20174;-74
2023/05/18 03:10:58;;;;;;;13.57;4.03;;;10.00;99.90;;;;;;5074573;28;20228;-74
2023/05/18 03:13:24;;;;;;;8.13;3.50;;;10.00;99.90;;;;;;5073451;28;20550;-73
2023/05/18 03:15:50;;;;;;;14.30;3.97;;;9.90;99.90;;;;;;5073388;28;20175;-75
2023/05/18 03:18:20;;;;;;;9.57;3.57;;;9.90;99.90;;;;;;5074613;28;20622;-76
2023/05/18 03:20:46;;;;;;;15.17;3.50;;;9.90;99.90;;;;;;5073279;28;20309;-75
2023/05/18 03:23:11;;;;;;;9.40;3.33;;;9.80;99.90;;;;;;5073205;28;20619;-75
2023/05/18 03:25:39;;;;;;;9.57;3.90;;;9.90;99.90;;;;;;5073399;28;20175;-76
2023/05/18 03:28:05;;;;;;;6.87;3.33;;;9.90;99.90;;;;;;5074634;28;20634;-75
2023/05/18 03:30:34;;;;;;;14.07;3.47;;;9.80;99.90;;;;;;5073402;28;20218;-76
2023/05/18 03:33:01;;;;;;;11.47;3.90;;;9.80;99.90;;;;;;5074894;28;20250;-77
2023/05/18 03:35:27;;;;;;;8.47;3.70;;;9.80;99.90;;;;;;5073194;28;20175;-76
2023/05/18 03:37:54;;;;;;;8.97;3.33;;;9.80;99.90;;;;;;5073234;28;20262;-76
2023/05/18 03:40:21;;;;;;;9.83;3.33;;;9.70;99.90;;;;;;5073137;28;20178;-75
2023/05/18 03:42:47;;;;;;;12.17;4.30;;;9.70;99.90;;;;;;5074495;28;20163;-75
2023/05/18 03:45:13;;;;;;;14.53;4.13;;;9.60;99.90;;;;;;5074038;28;20672;-75
2023/05/18 03:47:45;;;;;;;11.43;3.30;;;9.70;99.90;;;;;;5072855;28;20206;-75
2023/05/18 03:50:11;;;;;;;11.77;4.00;;;9.70;99.90;;;;;;5072920;28;20602;-75
2023/05/18 03:52:40;;;;;;;10.93;3.50;;;9.50;99.90;;;;;;5073175;28;20608;-75
2023/05/18 03:55:06;;;;;;;10.33;3.70;;;9.60;99.90;;;;;;5075341;28;20198;-75
2023/05/18 03:57:37;;;;;;;10.93;4.53;;;9.50;99.90;;;;;;5075073;28;20159;-75
2023/05/18 04:00:08;;;;;;;7.37;3.50;;;9.40;99.90;;;;;;5073993;28;20229;-75
2023/05/18 04:02:33;;;;;;;10.63;3.77;;;9.50;99.90;;;;;;5072773;28;20611;-75
2023/05/18 04:04:59;;;;;;;7.50;3.50;;;9.50;99.90;;;;;;5073352;28;20198;-75
2023/05/18 04:07:26;;;;;;;11.97;4.07;;;9.60;99.90;;;;;;5074169;28;20199;-77
2023/05/18 04:09:54;;;;;;;7.97;3.60;;;9.60;99.90;;;;;;5074101;28;20194;-77
2023/05/18 04:12:20;;;;;;;7.97;3.60;;;9.50;99.90;;;;;;5072557;28;20171;-75
2023/05/18 04:14:49;;;;;;;9.37;4.17;;;9.40;99.90;;;;;;5073877;28;20189;-75
2023/05/18 04:17:22;;;;;;;10.60;3.70;;;9.50;99.90;;;;;;5073744;28;20144;-74
2023/05/18 04:19:48;;;;;;;12.17;4.13;;;9.50;99.90;;;;;;5072333;28;20170;-76
2023/05/18 04:22:15;;;;;;;8.73;3.60;;;9.50;99.90;;;;;;5055840;28;20183;-76
2023/05/18 04:24:41;;;;;;;11.27;3.63;;;9.50;99.90;;;;;;5073615;28;20191;-75
2023/05/18 04:27:08;;;;;;;8.83;4.07;;;9.70;99.90;;;;;;5072315;28;20171;-75
2023/05/18 04:29:38;;;;;;;12.13;3.93;;;9.60;99.90;;;;;;5072081;28;20187;-77
2023/05/18 04:32:06;;;;;;;9.20;3.37;;;9.50;99.90;;;;;;5072228;28;20182;-76
2023/05/18 04:34:36;;;;;;;9.17;3.53;;;9.50;99.90;;;;;;5073515;28;20170;-76
2023/05/18 04:37:06;;;;;;;10.43;3.80;;;9.50;99.90;;;;;;5073497;28;20209;-76
2023/05/18 04:39:33;;;;;;;8.23;3.50;;;9.50;99.90;;;;;;5073369;28;20179;-76
2023/05/18 04:42:03;;;;;;;8.27;3.37;;;9.60;99.90;;;;;;5073411;28;20175;-76
2023/05/18 04:44:36;;;;;;;8.80;4.07;;;9.70;99.90;;;;;;5072106;28;20168;-76
2023/05/18 04:47:02;;;;;;;9.53;3.67;;;9.80;99.90;;;;;;5072888;28;20710;-76
2023/05/18 04:49:30;;;;;;;8.57;3.63;;;9.70;99.90;;;;;;5071815;28;20556;-76
2023/05/18 04:51:58;;;;;;;8.70;4.00;;;9.70;99.90;;;;;;5073168;28;20164;-76
2023/05/18 04:54:24;;;;;;;9.53;4.00;;;9.80;99.90;;;;;;5072957;28;20300;-76
2023/05/18 04:56:51;;;;;;;9.33;3.93;;;9.70;99.90;;;;;;5071565;28;20167;-76
2023/05/18 04:59:18;;;;;;;11.80;4.20;;;9.80;99.90;;;;;;5071516;28;20175;-76
2023/05/18 05:01:45;;;;;;;9.80;3.47;;;9.90;99.90;;;;;;5072918;28;20159;-75
2023/05/18 05:04:12;;;;;;;8.93;3.77;;;9.90;99.90;;;;;;5072892;28;20195;-75
2023/05/18 05:06:37;;;;;;;9.97;4.30;;;9.80;99.90;;;;;;5072972;28;20178;-75
2023/05/18 05:09:04;;;;;;;9.27;4.10;;;9.90;99.90;;;;;;5072795;28;20159;-77
2023/05/18 05:11:29;;;;;;;12.53;3.67;;;9.90;99.90;;;;;;5071338;28;20175;-77
2023/05/18 05:13:55;;;;;;;6.90;3.50;;;9.80;99.90;;;;;;5072740;28;20212;-76
2023/05/18 05:16:21;;;;;;;9.17;4.17;;;9.80;99.90;;;;;;5071670;28;20175;-76
2023/05/18 05:18:46;;;;;;;10.63;3.77;;;9.80;99.90;;;;;;5070992;28;20159;-76
2023/05/18 05:21:13;;;;;;;11.63;4.50;;;9.80;99.90;;;;;;5071340;28;20216;-75
2023/05/18 05:23:40;;;;;;;9.93;3.97;;;9.90;99.90;;;;;;5071291;28;20593;-77
2023/05/18 05:26:08;;;;;;;9.43;4.30;;;9.90;99.90;;;;;;5073043;28;20175;-76
2023/05/18 05:28:34;;;;;;;11.57;3.50;;;9.80;99.90;;;;;;5072485;28;20175;-76
2023/05/18 05:31:01;;;;;;;10.83;4.00;;;9.70;99.90;;;;;;5072457;28;20214;-77
2023/05/18 05:33:27;;;;;;;6.10;3.97;;;9.70;99.90;;;;;;5071314;28;20243;-75
2023/05/18 05:35:53;;;;;;;11.63;3.80;;;9.70;99.90;;;;;;5072500;28;20167;-76
2023/05/18 05:38:20;;;;;;;7.27;3.90;;;9.70;99.90;;;;;;5071350;28;20306;-76
2023/05/18 05:40:46;;;;;;;9.90;3.83;;;9.50;99.90;;;;;;5072616;28;20172;-75
2023/05/18 05:43:13;;;;;;;11.23;4.40;;;9.60;99.90;;;;;;5072391;28;20174;-75
2023/05/18 05:45:39;;;;;;;11.67;4.13;;;9.70;99.90;;;;;;5071493;28;20172;-74
2023/05/18 05:48:05;;;;;;;11.90;4.17;;;9.70;99.90;;;;;;5072443;28;20166;-75
2023/05/18 05:50:31;;;;;;;8.00;3.83;;;9.80;99.90;;;;;;5072205;28;20195;-77
2023/05/18 05:52:57;;;;;;;11.10;4.60;;;9.90;99.90;;;;;;5072556;28;20160;-76
2023/05/18 05:55:24;;;;;;;9.97;4.53;;;9.90;99.90;;;;;;5073306;28;20171;-76
2023/05/18 05:57:49;;;;;;;7.53;4.13;;;10.00;99.90;;;;;;5072637;28;20259;-76
2023/05/18 06:00:15;;;;;;;7.23;4.43;;;10.00;99.90;;;;;;5070953;28;20601;-76
2023/05/18 06:02:43;;;;;;;12.63;5.37;;;10.10;99.90;;;;;;5072343;28;20239;-75
2023/05/18 06:05:09;;;;;;;11.77;4.40;;;10.10;99.90;;;;;;5071008;28;20217;-75
2023/05/18 06:07:37;;;;;;;9.53;4.10;;;10.00;99.90;;;;;;5072215;28;20175;-75
2023/05/18 06:10:02;;;;;;;9.70;4.10;;;10.00;99.90;;;;;;5070983;28;20282;-76
2023/05/18 06:12:29;;;;;;;12.80;4.63;;;10.00;99.90;;;;;;5070799;28;20294;-77
2023/05/18 06:14:58;;;;;;;15.20;4.93;;;9.80;99.90;;;;;;5072335;28;20734;-75
2023/05/18 06:17:25;;;;;;;10.80;5.10;;;9.80;99.90;;;;;;5072271;28;20168;-77
2023/05/18 06:19:54;;;;;;;9.60;4.10;;;9.90;99.90;;;;;;5070878;28;20171;-77
2023/05/18 06:22:22;;;;;;;12.37;4.27;;;10.10;99.90;;;;;;5070854;28;20304;-75
2023/05/18 06:24:48;;;;;;;12.97;4.63;;;10.20;99.90;;;;;;5072238;28;20186;-76
2023/05/18 06:27:15;;;;;;;11.73;4.53;;;10.30;99.90;;;;;;5071903;28;20171;-75
2023/05/18 06:29:41;;;;;;;9.27;4.60;;;10.40;99.90;;;;;;5073599;28;20186;-75
2023/05/18 06:32:07;;;;;;;10.77;4.60;;;10.40;99.90;;;;;;5074715;28;20160;-77
2023/05/18 06:34:32;;;;;;;10.40;5.40;;;10.30;99.90;;;;;;5074873;28;20183;-77
2023/05/18 06:36:58;;;;;;;10.37;4.53;;;10.40;99.90;;;;;;5074723;28;20180;-76
2023/05/18 06:39:27;;;;;;;10.37;4.47;;;10.40;99.90;;;;;;5074487;28;20181;-77
2023/05/18 06:41:53;;;;;;;7.13;3.87;;;10.40;99.90;;;;;;5075908;28;20166;-76
2023/05/18 06:44:18;;;;;;;11.13;4.37;;;10.50;99.90;;;;;;5075634;28;20174;-76
2023/05/18 06:46:46;;;;;;;8.13;4.40;;;10.50;99.90;;;;;;5075634;28;20160;-75
2023/05/18 06:49:12;;;;;;;9.83;4.73;;;10.50;99.90;;;;;;5075354;28;20248;-75
2023/05/18 06:51:41;;;;;;;9.97;5.00;;;10.60;99.90;;;;;;5075734;28;20159;-76
2023/05/18 06:54:07;;;;;;;8.70;4.63;;;10.50;99.90;;;;;;5075606;28;20182;-75
2023/05/18 06:56:33;;;;;;;9.80;4.93;;;10.70;99.90;;;;;;5075573;28;20613;-75
2023/05/18 06:58:58;;;;;;;11.70;6.00;;;10.90;99.90;;;;;;5074229;28;20179;-75
2023/05/18 07:01:24;;;;;;;8.27;4.30;;;10.90;99.90;;;;;;5075539;28;20159;-75
2023/05/18 07:03:52;;;;;;;8.53;4.37;;;10.80;99.90;;;;;;5075273;28;20163;-75
2023/05/18 07:06:17;;;;;;;12.70;4.83;;;10.90;99.90;;;;;;5074128;28;20175;-74
2023/05/18 07:08:47;;;;;;;10.97;5.10;;;11.00;99.90;;;;;;5073937;28;20171;-76
2023/05/18 07:11:12;;;;;;;10.30;4.40;;;11.10;99.90;;;;;;5073693;28;20185;-76
2023/05/18 07:13:40;;;;;;;10.17;5.13;;;11.10;99.90;;;;;;5074823;28;20176;-76
2023/05/18 07:16:06;;;;;;;13.73;4.93;;;11.30;99.90;;;;;;5073707;28;20167;-77
2023/05/18 07:18:32;;;;;;;11.30;4.80;;;11.30;99.90;;;;;;5074751;28;20199;-75
2023/05/18 07:20:58;;;;;;;9.50;4.97;;;11.50;99.90;;;;;;5073311;28;20164;-75
2023/05/18 07:23:24;;;;;;;8.93;4.83;;;11.50;99.90;;;;;;5074518;28;20155;-75
2023/05/18 07:25:49;;;;;;;11.27;5.40;;;11.60;99.90;;;;;;5074627;28;20179;-76
2023/05/18 07:28:15;;;;;;;9.17;4.83;;;11.60;99.90;;;;;;5074935;28;20178;-76
2023/05/18 07:30:41;;;;;;;12.53;5.37;;;11.70;99.90;;;;;;5074682;28;20723;-75
2023/05/18 07:33:07;;;;;;;12.43;4.97;;;11.90;99.90;;;;;;5074680;28;20258;-76
2023/05/18 07:35:32;;;;;;;10.03;4.70;;;11.80;99.90;;;;;;5074658;28;20175;-76
2023/05/18 07:37:58;;;;;;;14.40;5.00;;;11.90;99.90;;;;;;5073349;28;20175;-76
2023/05/18 07:40:25;;;;;;;16.60;5.20;;;11.80;99.90;;;;;;5074303;28;20240;-76
2023/05/18 07:42:52;;;;;;;12.03;4.97;;;11.90;99.90;;;;;;5074252;28;20166;-76
2023/05/18 07:45:18;;;;;;;13.30;5.17;;;11.90;99.90;;;;;;5074340;28;20155;-75
2023/05/18 07:47:44;;;;;;;9.60;5.60;;;12.10;99.90;;;;;;5074394;28;20174;-74
2023/05/18 07:50:11;;;;;;;14.80;5.73;;;12.10;99.90;;;;;;5074146;28;20236;-75
2023/05/18 07:52:37;;;;;;;12.87;5.90;;;12.10;99.90;;;;;;5074199;28;20227;-75
2023/05/18 07:55:06;;;;;;;10.50;5.17;;;12.20;99.90;;;;;;5072697;28;20174;-75
2023/05/18 07:57:34;;;;;;;11.83;5.37;;;12.20;99.90;;;;;;5072775;28;20590;-76
2023/05/18 07:59:59;;;;;;;11.77;5.30;;;12.20;99.90;;;;;;5073394;28;20253;-75
2023/05/18 08:02:26;;;;;;;11.73;5.03;;;12.40;99.90;;;;;;5072771;28;20270;-75
2023/05/18 08:04:52;;;;;;;11.33;5.20;;;12.50;99.90;;;;;;5074061;28;20276;-75
2023/05/18 08:07:20;;;;;;;10.90;5.67;;;12.30;99.90;;;;;;5072916;28;20638;-75
2023/05/18 08:09:45;;;;;;;16.67;5.90;;;12.30;99.90;;;;;;5072551;28;20198;-75
2023/05/18 08:12:11;;;;;;;14.30;5.03;;;12.40;99.90;;;;;;5073885;28;20562;-75
2023/05/18 08:14:37;;;;;;;12.30;5.33;;;12.50;99.90;;;;;;5073554;28;20198;-75
2023/05/18 08:17:03;;;;;;;14.37;6.07;;;12.60;99.90;;;;;;5073759;28;20173;-75
2023/05/18 08:19:29;;;;;;;15.80;6.50;;;12.50;99.90;;;;;;5072282;28;20166;-75
2023/05/18 08:21:55;;;;;;;15.93;6.43;;;12.70;99.90;;;;;;5073718;28;20385;-75
2023/05/18 08:24:21;;;;;;;13.40;5.50;;;12.90;99.90;;;;;;5073224;28;20186;-75
2023/05/18 08:26:47;;;;;;;13.63;5.43;;;13.00;99.90;;;;;;5072089;28;20181;-75
2023/05/18 08:29:13;;;;;;;11.07;4.90;;;13.00;99.90;;;;;;5073724;28;20162;-78
2023/05/18 08:31:39;;;;;;;17.93;6.00;;;13.20;99.90;;;;;;5072338;28;20186;-77
2023/05/18 08:34:06;;;;;;;11.30;5.20;;;13.30;99.90;;;;;;5072501;28;20159;-78
2023/05/18 08:36:35;;;;;;;10.80;5.37;;;13.50;99.90;;;;;;5072063;28;20253;-77
2023/05/18 08:39:02;;;;;;;15.73;5.53;;;13.50;99.90;;;;;;5073867;28;20162;-77
2023/05/18 08:41:58;;;;;;;13.07;5.30;;;13.60;99.90;;;;;;5073767;28;20179;-78
2023/05/18 08:44:42;;;;;;;10.70;5.00;;;13.70;99.90;;;;;;5069816;28;20308;-77
2023/05/18 08:47:10;;;;;;;12.80;5.07;;;13.70;99.90;;;;;;5072983;28;20171;-76
2023/05/18 08:49:36;;;;;;;9.67;5.10;;;13.70;99.90;;;;;;5072938;28;20194;-77
2023/05/18 08:52:03;;;;;;;13.33;5.37;;;14.00;99.90;;;;;;5071319;28;20162;-77
2023/05/18 08:54:30;;;;;;;10.57;5.63;;;14.00;99.90;;;;;;5070967;28;20176;-76
2023/05/18 08:56:58;;;;;;;11.57;4.97;;;14.00;99.90;;;;;;5071532;28;20523;-77
2023/05/18 08:59:30;;;;;;;11.67;4.73;;;14.00;99.90;;;;;;5073401;28;20598;-76
2023/05/18 09:01:56;;;;;;;10.80;5.20;;;14.20;99.90;;;;;;5072069;28;20224;-77
2023/05/18 09:04:23;;;;;;;13.87;4.77;;;14.30;99.90;;;;;;5073090;28;20233;-77
2023/05/18 09:06:52;;;;;;;10.50;4.63;;;14.50;99.90;;;;;;5073066;28;20632;-77
2023/05/18 09:09:20;;;;;;;11.67;4.40;;;14.70;99.90;;;;;;5073366;28;20167;-76
2023/05/18 09:11:48;;;;;;;10.63;5.40;;;14.70;99.90;;;;;;5071776;28;20167;-77
2023/05/18 09:14:14;;;;;;;11.43;4.83;;;14.90;99.90;;;;;;5072938;28;20159;-77
2023/05/18 09:16:40;;;;;;;12.10;4.77;;;14.80;99.90;;;;;;5073074;28;20224;-77
2023/05/18 09:19:05;;;;;;;10.37;4.83;;;14.90;99.90;;;;;;5072730;28;20513;-77
2023/05/18 09:21:31;;;;;;;12.80;4.83;;;15.10;99.90;;;;;;5071554;28;20518;-77
2023/05/18 09:23:59;;;;;;;9.20;4.80;;;15.20;99.90;;;;;;5071989;28;20179;-77
2023/05/18 09:26:26;;;;;;;13.60;4.87;;;15.20;99.90;;;;;;5071767;28;20570;-77
2023/05/18 09:28:52;;;;;;;9.27;4.90;;;15.30;99.90;;;;;;5071341;28;20183;-77
2023/05/18 09:31:20;;;;;;;11.00;4.97;;;15.10;99.90;;;;;;5072446;28;20272;-76
2023/05/18 09:33:47;;;;;;;11.63;4.67;;;15.30;99.90;;;;;;5072456;28;20524;-76
2023/05/18 09:36:15;;;;;;;12.27;4.33;;;15.30;99.40;;;;;;5072144;28;20643;-76
2023/05/18 09:38:44;;;;;;;7.73;3.83;;;15.40;98.50;;;;;;5072380;28;20151;-76
2023/05/18 09:41:11;;;;;;;9.53;3.53;;;15.40;98.80;;;;;;5072362;28;20175;-75
2023/05/18 09:43:38;;;;;;;10.13;3.60;;;15.10;97.60;;;;;;5072832;28;20152;-76
2023/05/18 09:46:08;;;;;;;9.30;4.10;;;15.10;97.80;;;;;;5072438;28;20170;-76
2023/05/18 09:48:35;;;;;;;6.97;3.23;;;15.10;98.40;;;;;;5073147;28;20542;-76
2023/05/18 09:51:06;;;;;;;7.70;2.90;;;15.30;97.50;;;;;;5072406;28;20191;-76
2023/05/18 09:53:36;;;;;;;8.53;3.23;;;15.40;95.00;;;;;;5072920;28;20168;-76
2023/05/18 09:56:08;;;;;;;7.03;4.03;;;15.60;96.60;;;;;;5073076;28;20157;-77
2023/05/18 09:58:33;;;;;;;9.77;4.57;;;15.60;97.20;;;;;;5072372;28;20187;-77
2023/05/18 10:01:01;;;;;;;8.70;3.97;;;15.80;97.20;;;;;;5072173;28;20214;-77
2023/05/18 10:03:36;;;;;;;9.63;4.20;;;16.20;97.10;;;;;;5072077;28;20251;-77
2023/05/18 10:06:08;;;;;;;9.07;4.33;;;16.20;96.60;;;;;;5074716;28;20165;-77
2023/05/18 10:08:36;;;;;;;11.93;3.70;;;16.20;96.60;;;;;;5075964;28;20228;-77
2023/05/18 10:11:02;;;;;;;12.30;4.50;;;16.20;96.00;;;;;;5074635;28;20290;-76
2023/05/18 10:13:30;;;;;;;9.43;3.77;;;16.30;96.00;;;;;;5075954;28;20159;-76
2023/05/18 10:15:59;;;;;;;14.50;3.97;;;16.50;95.20;;;;;;5076104;28;20171;-77
2023/05/18 10:18:30;;;;;;;12.23;4.47;;;16.80;95.70;;;;;;5074712;28;20574;-77
2023/05/18 10:20:58;;;;;;;11.63;4.47;;;16.80;95.20;;;;;;5076003;28;20169;-77
2023/05/18 10:23:26;;;;;;;11.33;4.10;;;16.80;95.40;;;;;;5075729;28;20177;-77
2023/05/18 10:25:52;;;;;;;8.57;3.40;;;16.90;94.30;;;;;;5074555;28;20174;-76
2023/05/18 10:28:27;;;;;;;11.60;3.67;;;17.10;93.30;;;;;;5074619;28;20181;-77
2023/05/18 10:30:54;;;;;;;9.23;3.30;;;17.20;93.50;;;;;;5074561;28;20304;-77
2023/05/18 10:33:25;;;;;;;11.20;3.17;;;17.30;93.50;;;;;;5074618;28;20170;-77
2023/05/18 10:35:51;;;;;;;8.37;3.70;;;17.20;93.50;;;;;;5075599;28;20159;-77
2023/05/18 10:38:27;;;;;;;10.83;3.70;;;17.20;93.30;;;;;;5074572;28;20196;-77
2023/05/18 10:41:04;;;;;;;6.73;3.77;;;17.10;93.00;;;;;;5075689;28;20159;-77
2023/05/18 10:43:32;;;;;;;9.20;3.33;;;17.20;92.40;;;;;;5074837;28;20184;-76
2023/05/18 10:46:00;;;;;;;9.10;3.87;;;17.40;93.10;;;;;;5076194;28;20255;-76
2023/05/18 10:48:28;;;;;;;10.50;3.33;;;17.60;92.10;;;;;;5074755;28;20176;-78
2023/05/18 10:50:56;;;;;;;9.00;3.83;;;17.60;92.30;;;;;;5074565;28;20570;-76
2023/05/18 10:53:28;;;;;;;7.93;4.07;;;17.90;92.40;;;;;;5075039;28;20602;-76
2023/05/18 10:55:54;;;;;;;8.67;3.70;;;18.20;91.60;;;;;;5074569;28;20154;-76
2023/05/18 10:58:23;;;;;;;11.23;4.00;;;18.40;91.20;;;;;;5075054;28;20305;-77
2023/05/18 11:00:53;;;;;;;12.80;4.00;;;18.40;90.80;;;;;;5074978;28;20168;-77
2023/05/18 11:03:19;;;;;;;6.97;3.13;;;18.30;91.30;;;;;;5074753;28;20647;-77
2023/05/18 11:06:07;;;;;;;7.17;3.70;;;17.80;91.30;;;;;;5073526;28;20694;-77
2023/05/18 11:08:33;;;;;;;7.80;3.90;;;17.70;91.00;;;;;;5074760;28;20155;-77
2023/05/18 11:11:08;;;;;;;13.17;3.73;;;18.20;90.90;;;;;;5073391;28;20201;-77
2023/05/18 11:13:34;;;;;;;7.73;3.23;;;18.60;90.80;;;;;;5074761;28;20594;-76
2023/05/18 11:16:05;;;;;;;10.17;3.57;;;19.20;90.70;;;;;;5074169;28;20156;-77
2023/05/18 11:18:48;;;;;;;10.03;3.40;;;19.40;90.20;;;;;;5075284;28;20147;-77
2023/05/18 11:21:41;;;;;;;10.17;3.50;;;19.40;90.20;;;;;;5075786;28;20155;-77
2023/05/18 11:24:29;;;;;;;8.43;3.77;;;19.60;89.10;;;;;;5051339;28;20203;-77
2023/05/18 11:27:02;;;;;;;9.87;4.03;;;18.90;89.50;;;;;;5075105;28;20167;-77
2023/05/18 11:29:35;;;;;;;13.07;4.07;;;19.20;90.20;;;;;;5074557;28;20195;-76
2023/05/18 11:32:01;;;;;;;9.77;3.77;;;19.60;90.00;;;;;;5074225;28;20239;-78
2023/05/18 11:34:43;;;;;;;10.30;3.63;;;19.40;89.40;;;;;;5074174;28;20166;-77
2023/05/18 11:37:38;;;;;;;7.43;3.63;;;18.70;88.40;;;;;;5073036;28;20525;-77
2023/05/18 11:40:08;;;;;;;10.27;4.13;;;18.70;88.80;;;;;;5042630;28;20183;-77
2023/05/18 11:42:34;;;;;;;10.07;3.80;;;18.90;89.30;;;;;;5074135;28;20159;-76
2023/05/18 11:45:07;;;;;;;10.10;3.83;;;19.10;89.10;;;;;;5074487;28;20171;-76
2023/05/18 11:47:35;;;;;;;9.37;3.93;;;19.40;88.90;;;;;;5074226;28;20158;-76
2023/05/18 11:50:01;;;;;;;11.53;3.70;;;19.40;87.30;;;;;;5074346;28;20217;-76
2023/05/18 11:52:27;;;;;;;14.07;5.07;;;19.30;87.80;;;;;;5074508;28;20588;-78
2023/05/18 11:54:59;;;;;;;11.97;4.90;;;19.30;86.70;;;;;;5073134;28;20166;-76
2023/05/18 11:57:39;;;;;;;9.60;4.13;;;19.40;86.90;;;;;;5073117;28;20206;-76
2023/05/18 12:00:08;;;;;;;7.57;3.93;;;19.60;86.00;;;;;;5072592;28;20186;-76
2023/05/18 12:02:35;;;;;;;11.50;3.60;;;19.60;85.70;;;;;;5074242;28;20625;-77
2023/05/18 12:05:07;;;;;;;13.77;3.63;;;19.90;84.60;;;;;;5073856;28;20659;-77
2023/05/18 12:07:34;;;;;;;7.27;3.57;;;20.50;83.70;;;;;;5074488;28;20143;-77
2023/05/18 12:10:13;;;;;;;10.77;3.53;;;21.10;83.30;;;;;;5072902;28;20244;-77
2023/05/18 12:12:40;;;;;;;8.93;3.90;;;21.00;82.70;;;;;;5074071;28;20588;-76
2023/05/18 12:15:10;;;;;;;9.37;4.03;;;21.40;81.20;;;;;;5074027;28;20193;-77
2023/05/18 12:17:40;;;;;;;11.50;3.87;;;21.70;80.80;;;;;;5073814;28;20669;-76
2023/05/18 12:20:12;;;;;;;10.23;3.43;;;21.50;79.60;;;;;;5072766;28;20163;-75
2023/05/18 12:22:40;;;;;;;11.57;4.30;;;21.20;80.50;;;;;;5074288;28;20171;-77
2023/05/18 12:25:06;;;;;;;10.10;5.57;;;21.00;80.80;;;;;;5073634;28;20183;-77
2023/05/18 12:27:38;;;;;;;9.90;3.67;;;21.40;79.40;;;;;;5072777;28;20167;-76
2023/05/18 12:30:05;;;;;;;8.50;4.17;;;21.60;78.80;;;;;;5073468;28;20524;-77
2023/05/18 12:32:32;;;;;;;6.97;3.87;;;21.90;77.40;;;;;;5073998;28;20245;-77
2023/05/18 12:34:58;;;;;;;10.93;4.13;;;22.90;76.30;;;;;;5072325;28;20164;-77
2023/05/18 12:37:25;;;;;;;9.57;3.53;;;23.10;74.80;;;;;;5072381;28;20172;-76
2023/05/18 12:39:52;;;;;;;9.20;3.83;;;24.00;73.70;;;;;;5073214;28;20251;-76
2023/05/18 12:42:17;;;;;;;8.17;4.20;;;24.00;72.50;;;;;;5073283;28;20221;-78
2023/05/18 12:44:44;;;;;;;7.63;3.93;;;23.30;71.40;;;;;;5073192;28;20581;-76
2023/05/18 12:47:11;;;;;;;9.47;4.10;;;23.40;70.80;;;;;;5073483;28;20175;-76
2023/05/18 12:49:47;;;;;;;7.30;4.07;;;23.70;70.60;;;;;;5072270;28;20611;-77